createdAt,value
2022-10-26T00:01:44.218Z,94.60
2022-10-26T00:04:29.673Z,94.70
2022-10-26T00:07:15.335Z,94.70
2022-10-26T00:10:01.182Z,94.70
2022-10-26T00:12:50.108Z,94.80
2022-10-26T00:15:39.363Z,94.70
2022-10-26T00:18:25.469Z,94.60
2022-10-26T00:21:11.267Z,94.50
2022-10-26T00:23:58.773Z,94.40
2022-10-26T00:26:44.147Z,94.30
2022-10-26T00:29:29.931Z,94.30
2022-10-26T00:32:15.271Z,94.30
2022-10-26T00:35:10.513Z,94.30
2022-10-26T00:38:06.687Z,94.30
2022-10-26T00:40:55.123Z,94.40
2022-10-26T00:43:41.799Z,94.40
2022-10-26T00:46:35.087Z,94.50
2022-10-26T00:49:21.059Z,94.50
2022-10-26T00:52:08.619Z,94.60
2022-10-26T00:54:54.518Z,94.80
2022-10-26T00:57:40.085Z,94.80
2022-10-26T01:00:25.492Z,94.60
2022-10-26T01:03:11.323Z,94.60
2022-10-26T01:05:58.163Z,94.60
2022-10-26T01:08:44.286Z,94.50
2022-10-26T01:11:29.902Z,94.60
2022-10-26T01:14:17.796Z,94.40
2022-10-26T01:17:13.737Z,94.50
2022-10-26T01:20:20.679Z,94.40
2022-10-26T01:23:24.449Z,94.40
2022-10-26T01:26:40.273Z,94.40
2022-10-26T01:29:25.392Z,94.40
2022-10-26T01:32:15.801Z,94.40
2022-10-26T01:35:22.737Z,94.50
2022-10-26T01:38:25.439Z,94.60
2022-10-26T01:41:37.754Z,94.50
2022-10-26T01:44:43.766Z,94.60
2022-10-26T01:47:32.803Z,94.50
2022-10-26T01:50:19.876Z,94.60
2022-10-26T01:53:05.723Z,94.60
2022-10-26T01:55:55.499Z,94.60
2022-10-26T01:58:59.180Z,94.70
2022-10-26T02:01:54.015Z,94.80
2022-10-26T02:04:51.119Z,94.90
2022-10-26T02:08:19.661Z,94.90
2022-10-26T02:11:15.245Z,94.90
2022-10-26T02:17:26.627Z,94.70
2022-10-26T02:20:24.035Z,94.70
2022-10-26T02:23:12.136Z,94.40
2022-10-26T02:25:59.942Z,94.40
2022-10-26T02:28:49.710Z,94.40
2022-10-26T02:31:36.495Z,94.40
2022-10-26T02:34:27.061Z,94.40
2022-10-26T02:37:19.748Z,94.40
2022-10-26T02:40:11.272Z,94.40
2022-10-26T02:43:01.880Z,94.40
2022-10-26T02:45:52.055Z,94.20
2022-10-26T02:48:38.366Z,94.30
2022-10-26T02:54:40.135Z,94.70
2022-10-26T02:57:47.617Z,94.70
2022-10-26T03:00:33.168Z,94.80
2022-10-26T03:03:22.560Z,94.80
2022-10-26T03:06:07.876Z,94.90
2022-10-26T03:08:55.451Z,94.80
2022-10-26T03:11:40.750Z,94.80
2022-10-26T03:14:26.352Z,94.80
2022-10-26T03:17:11.611Z,94.70
2022-10-26T03:19:57.159Z,94.60
2022-10-26T03:22:42.606Z,94.90
2022-10-26T03:25:31.208Z,94.40
2022-10-26T03:28:16.727Z,94.30
2022-10-26T03:31:02.228Z,94.40
2022-10-26T03:33:47.844Z,94.40
2022-10-26T03:36:33.988Z,94.50
2022-10-26T03:39:19.635Z,94.70
2022-10-26T03:42:05.139Z,94.70
2022-10-26T03:44:50.303Z,94.70
2022-10-26T03:47:47.758Z,94.70
2022-10-26T03:50:33.033Z,94.70
2022-10-26T03:53:18.560Z,94.80
2022-10-26T03:56:04.504Z,94.90
2022-10-26T03:58:54.041Z,94.90
2022-10-26T04:01:40.090Z,94.80
2022-10-26T04:04:25.893Z,94.80
2022-10-26T04:07:11.120Z,94.70
2022-10-26T04:09:56.621Z,94.70
2022-10-26T04:12:42.198Z,94.70
2022-10-26T04:15:27.999Z,94.70
2022-10-26T04:18:16.067Z,94.70
2022-10-26T04:21:02.325Z,94.60
2022-10-26T04:23:47.635Z,94.70
2022-10-26T04:26:33.063Z,94.60
2022-10-26T04:29:18.676Z,94.60
2022-10-26T04:32:04.331Z,94.70
2022-10-26T04:34:55.612Z,94.70
2022-10-26T04:37:41.201Z,94.70
2022-10-26T04:40:30.498Z,94.60
2022-10-26T04:43:16.267Z,95.10
2022-10-26T04:46:01.578Z,94.70
2022-10-26T04:48:48.825Z,94.80
2022-10-26T04:51:34.249Z,94.70
2022-10-26T04:54:20.361Z,94.70
2022-10-26T04:57:06.373Z,94.80
2022-10-26T04:59:54.239Z,94.80
2022-10-26T05:02:42.495Z,94.80
2022-10-26T05:05:28.711Z,94.80
2022-10-26T05:08:14.761Z,94.80
2022-10-26T05:11:00.483Z,94.70
2022-10-26T05:13:48.011Z,94.70
2022-10-26T05:16:37.412Z,94.80
2022-10-26T05:19:25.559Z,94.80
2022-10-26T05:22:11.306Z,94.70
2022-10-26T05:24:57.043Z,94.70
2022-10-26T05:27:47.333Z,94.70
2022-10-26T05:30:33.011Z,94.50
2022-10-26T05:33:18.399Z,94.60
2022-10-26T05:36:04.048Z,94.60
2022-10-26T05:38:49.213Z,94.60
2022-10-26T05:41:34.832Z,94.60
2022-10-26T05:44:20.396Z,94.50
2022-10-26T05:47:07.740Z,94.50
2022-10-26T05:49:53.196Z,94.40
2022-10-26T05:52:43.357Z,94.40
2022-10-26T05:55:29.398Z,94.30
2022-10-26T05:58:15.896Z,94.20
2022-10-26T06:01:28.964Z,94.30
2022-10-26T06:04:33.014Z,94.30
2022-10-26T06:07:22.698Z,94.30
2022-10-26T06:10:10.647Z,94.30
2022-10-26T06:12:56.569Z,94.20
2022-10-26T06:16:17.971Z,94.20
2022-10-26T06:19:21.859Z,94.30
2022-10-26T06:22:28.748Z,94.40
2022-10-26T06:25:26.224Z,94.40
2022-10-26T06:28:38.523Z,94.40
2022-10-26T06:31:27.618Z,94.30
2022-10-26T06:34:21.203Z,94.30
2022-10-26T06:37:08.296Z,94.20
2022-10-26T06:39:55.776Z,94.30
2022-10-26T06:42:41.823Z,94.20
2022-10-26T06:45:27.734Z,94.20
2022-10-26T06:48:20.052Z,94.20
2022-10-26T06:51:05.744Z,94.20
2022-10-26T06:54:07.075Z,94.20
2022-10-26T06:56:59.267Z,94.20
2022-10-26T06:59:53.675Z,94.20
2022-10-26T07:02:39.177Z,94.20
2022-10-26T07:05:24.530Z,94.20
2022-10-26T07:08:10.004Z,94.20
2022-10-26T07:10:58.658Z,94.10
2022-10-26T07:13:44.272Z,94.10
2022-10-26T07:16:29.699Z,94.20
2022-10-26T07:19:15.290Z,94.20
2022-10-26T07:22:01.212Z,94.20
2022-10-26T07:24:50.475Z,94.30
2022-10-26T07:27:35.877Z,94.40
2022-10-26T07:30:21.504Z,94.40
2022-10-26T07:33:10.205Z,94.40
2022-10-26T07:35:56.046Z,94.40
2022-10-26T07:38:44.217Z,94.40
2022-10-26T07:41:30.292Z,94.50
2022-10-26T07:44:15.608Z,94.40
2022-10-26T07:47:01.058Z,94.40
2022-10-26T07:49:50.204Z,94.40
2022-10-26T07:52:36.993Z,94.40
2022-10-26T07:55:22.276Z,94.60
2022-10-26T07:58:07.763Z,94.50
2022-10-26T08:00:57.293Z,94.20
2022-10-26T08:03:45.600Z,93.90
2022-10-26T08:06:30.853Z,93.80
2022-10-26T08:09:16.637Z,93.80
2022-10-26T08:12:01.940Z,93.80
2022-10-26T08:14:47.497Z,93.70
2022-10-26T08:17:33.316Z,93.70
2022-10-26T08:20:21.645Z,93.60
2022-10-26T08:23:08.816Z,93.60
2022-10-26T08:25:58.710Z,93.50
2022-10-26T08:28:44.441Z,93.40
2022-10-26T08:31:30.008Z,93.20
2022-10-26T08:34:16.711Z,93.10
2022-10-26T08:37:02.695Z,93.10
2022-10-26T08:39:53.974Z,93.00
2022-10-26T08:42:45.321Z,93.10
2022-10-26T08:45:38.678Z,92.90
2022-10-26T08:48:33.935Z,92.70
2022-10-26T08:51:25.174Z,92.80
2022-10-26T08:54:38.889Z,92.30
2022-10-26T08:57:33.844Z,92.20
2022-10-26T09:00:22.334Z,92.10
2022-10-26T09:03:15.329Z,91.70
2022-10-26T09:06:25.145Z,91.10
2022-10-26T09:09:38.652Z,90.80
2022-10-26T09:12:53.406Z,90.40
2022-10-26T09:16:00.482Z,90.00
2022-10-26T09:18:53.487Z,89.50
2022-10-26T09:21:48.707Z,89.00
2022-10-26T09:24:42.421Z,88.00
2022-10-26T09:27:30.424Z,88.20
2022-10-26T09:30:19.418Z,87.60
2022-10-26T09:33:16.815Z,86.90
2022-10-26T09:36:18.592Z,87.00
2022-10-26T09:39:28.143Z,86.50
2022-10-26T09:42:25.899Z,86.60
2022-10-26T09:45:49.555Z,86.40
2022-10-26T09:48:51.389Z,86.40
2022-10-26T09:51:39.059Z,86.70
2022-10-26T09:54:24.655Z,85.70
2022-10-26T09:57:15.119Z,85.00
2022-10-26T10:00:00.943Z,84.90
2022-10-26T10:02:53.953Z,84.10
2022-10-26T10:05:50.711Z,84.20
2022-10-26T10:08:37.233Z,83.10
2022-10-26T10:11:22.925Z,82.30
2022-10-26T10:14:14.859Z,82.90
2022-10-26T10:17:04.051Z,82.30
2022-10-26T10:19:49.930Z,82.10
2022-10-26T10:22:35.421Z,82.10
2022-10-26T10:25:33.313Z,81.50
2022-10-26T10:28:27.415Z,81.40
2022-10-26T10:31:27.694Z,81.10
2022-10-26T10:34:19.507Z,80.60
2022-10-26T10:37:27.293Z,81.20
2022-10-26T10:40:23.284Z,81.70
2022-10-26T10:43:14.460Z,81.80
2022-10-26T10:46:00.494Z,82.60
2022-10-26T10:48:54.343Z,83.10
2022-10-26T10:51:43.284Z,82.60
2022-10-26T10:54:37.655Z,82.40
2022-10-26T10:57:42.107Z,82.90
2022-10-26T11:00:35.829Z,82.40
2022-10-26T11:03:38.530Z,81.60
2022-10-26T11:06:29.008Z,81.60
2022-10-26T11:09:20.940Z,80.00
2022-10-26T11:12:20.054Z,79.60
2022-10-26T11:15:13.266Z,77.30
2022-10-26T11:18:21.045Z,76.20
2022-10-26T11:21:26.288Z,76.40
2022-10-26T11:24:24.078Z,76.70
2022-10-26T11:27:17.511Z,75.50
2022-10-26T11:30:10.949Z,74.10
2022-10-26T11:33:18.891Z,74.20
2022-10-26T11:36:08.971Z,74.60
2022-10-26T11:38:59.957Z,72.90
2022-10-26T11:42:01.595Z,70.40
2022-10-26T11:45:03.144Z,69.40
2022-10-26T11:47:53.111Z,68.70
2022-10-26T11:50:55.191Z,68.60
2022-10-26T11:53:42.848Z,67.70
2022-10-26T11:56:39.568Z,66.00
2022-10-26T11:59:33.079Z,65.20
2022-10-26T12:02:26.130Z,65.70
2022-10-26T12:05:40.100Z,61.50
2022-10-26T12:08:36.224Z,61.30
2022-10-26T12:11:45.267Z,57.50
2022-10-26T12:14:44.326Z,55.60
2022-10-26T12:17:42.672Z,54.80
2022-10-26T12:20:54.204Z,53.40
2022-10-26T12:23:56.238Z,52.00
2022-10-26T12:26:52.902Z,53.10
2022-10-26T12:29:39.764Z,51.70
2022-10-26T12:32:28.196Z,52.40
2022-10-26T12:35:35.918Z,49.30
2022-10-26T12:38:24.464Z,48.00
2022-10-26T12:41:23.290Z,48.10
2022-10-26T12:44:39.610Z,45.50
2022-10-26T12:47:27.914Z,45.40
2022-10-26T12:50:13.471Z,45.10
2022-10-26T12:53:10.414Z,43.70
2022-10-26T12:56:05.922Z,44.90
2022-10-26T12:59:04.924Z,46.10
2022-10-26T13:02:10.545Z,44.80
2022-10-26T13:05:26.760Z,44.70
2022-10-26T13:08:14.484Z,44.60
2022-10-26T13:11:15.048Z,44.40
2022-10-26T13:14:05.103Z,42.90
2022-10-26T13:16:51.015Z,39.90
2022-10-26T13:19:44.985Z,39.90
2022-10-26T13:22:33.029Z,38.90
2022-10-26T13:25:26.015Z,39.80
2022-10-26T13:28:29.940Z,40.50
2022-10-26T13:31:29.664Z,40.10
2022-10-26T13:34:18.163Z,38.90
2022-10-26T13:37:23.075Z,38.30
2022-10-26T13:40:11.899Z,39.30
2022-10-26T13:43:02.309Z,40.40
2022-10-26T13:45:55.811Z,39.20
2022-10-26T13:48:42.082Z,41.30
2022-10-26T13:51:42.768Z,41.60
2022-10-26T13:54:37.053Z,41.80
2022-10-26T13:57:42.981Z,42.30
2022-10-26T14:00:28.267Z,43.30
2022-10-26T14:03:18.563Z,43.70
2022-10-26T14:06:22.928Z,45.20
2022-10-26T14:09:15.498Z,45.10
2022-10-26T14:12:02.653Z,45.40
2022-10-26T14:14:48.431Z,46.50
2022-10-26T14:17:34.728Z,48.40
2022-10-26T14:20:22.735Z,49.80
2022-10-26T14:23:29.475Z,50.90
2022-10-26T14:26:39.251Z,51.50
2022-10-26T14:29:27.314Z,52.60
2022-10-26T14:32:30.688Z,54.60
2022-10-26T14:35:42.706Z,56.20
2022-10-26T14:38:33.981Z,58.20
2022-10-26T14:41:25.454Z,58.00
2022-10-26T14:44:21.080Z,57.10
2022-10-26T14:47:21.747Z,56.50
2022-10-26T14:50:17.636Z,56.90
2022-10-26T14:53:13.571Z,58.40
2022-10-26T14:55:59.290Z,59.10
2022-10-26T14:58:44.788Z,59.90
2022-10-26T15:01:33.372Z,61.00
2022-10-26T15:04:32.119Z,61.80
2022-10-26T15:07:18.746Z,62.50
2022-10-26T15:10:05.895Z,62.10
2022-10-26T15:12:51.349Z,62.30
2022-10-26T15:15:39.621Z,62.90
2022-10-26T15:18:28.536Z,63.40
2022-10-26T15:21:32.659Z,64.40
2022-10-26T15:24:20.773Z,65.50
2022-10-26T15:27:20.782Z,65.90
2022-10-26T15:30:27.945Z,66.30
2022-10-26T15:33:21.844Z,67.10
2022-10-26T15:36:15.507Z,68.70
2022-10-26T15:39:01.068Z,68.70
2022-10-26T15:41:47.967Z,69.50
2022-10-26T15:44:33.572Z,70.20
2022-10-26T15:47:22.700Z,71.10
2022-10-26T15:50:13.539Z,71.70
2022-10-26T15:53:01.498Z,72.30
2022-10-26T15:55:48.199Z,72.80
2022-10-26T15:58:33.548Z,73.20
2022-10-26T16:01:27.683Z,73.20
2022-10-26T16:04:13.236Z,73.50
2022-10-26T16:07:01.350Z,73.90
2022-10-26T16:09:46.711Z,74.70
2022-10-26T16:12:32.166Z,75.00
2022-10-26T16:15:20.111Z,75.30
2022-10-26T16:18:05.967Z,75.60
2022-10-26T16:20:51.207Z,76.00
2022-10-26T16:23:36.697Z,76.60
2022-10-26T16:26:23.436Z,77.30
2022-10-26T16:29:08.797Z,77.80
2022-10-26T16:31:54.514Z,78.10
2022-10-26T16:34:40.004Z,78.40
2022-10-26T16:37:31.458Z,78.90
2022-10-26T16:40:17.354Z,79.20
2022-10-26T16:43:02.546Z,80.20
2022-10-26T16:45:48.174Z,80.10
2022-10-26T16:48:35.936Z,80.30
2022-10-26T16:51:29.487Z,80.70
2022-10-26T16:54:15.201Z,81.10
2022-10-26T16:57:00.517Z,81.50
2022-10-26T16:59:45.944Z,82.00
2022-10-26T17:02:32.323Z,82.40
2022-10-26T17:05:17.785Z,82.80
2022-10-26T17:08:06.944Z,83.30
2022-10-26T17:10:53.244Z,83.70
2022-10-26T17:13:39.840Z,83.90
2022-10-26T17:16:25.598Z,84.30
2022-10-26T17:19:11.714Z,85.50
2022-10-26T17:21:56.877Z,85.10
2022-10-26T17:24:42.563Z,85.10
2022-10-26T17:27:27.821Z,85.70
2022-10-26T17:30:14.132Z,85.90
2022-10-26T17:32:59.497Z,86.00
2022-10-26T17:35:45.027Z,87.10
2022-10-26T17:38:35.630Z,86.60
2022-10-26T17:41:22.582Z,86.80
2022-10-26T17:44:08.331Z,87.00
2022-10-26T17:46:53.663Z,87.40
2022-10-26T17:49:39.041Z,87.80
2022-10-26T17:52:25.182Z,87.80
2022-10-26T17:55:13.336Z,87.90
2022-10-26T17:57:58.479Z,87.80
2022-10-26T18:00:47.910Z,87.70
2022-10-26T18:03:36.369Z,87.50
2022-10-26T18:06:22.762Z,87.80
2022-10-26T18:09:08.119Z,88.00
2022-10-26T18:11:55.126Z,88.10
2022-10-26T18:14:41.152Z,88.20
2022-10-26T18:17:29.307Z,88.20
2022-10-26T18:20:20.377Z,88.20
2022-10-26T18:23:09.241Z,88.30
2022-10-26T18:26:21.707Z,88.50
2022-10-26T18:29:07.444Z,88.60
2022-10-26T18:31:52.658Z,88.70
2022-10-26T18:34:38.153Z,88.80
2022-10-26T18:37:23.596Z,88.70
2022-10-26T18:40:09.543Z,89.20
2022-10-26T18:42:55.345Z,89.50
2022-10-26T18:45:40.903Z,89.70
2022-10-26T18:48:26.864Z,90.00
2022-10-26T18:51:15.376Z,90.10
2022-10-26T18:54:01.404Z,90.20
2022-10-26T18:56:46.650Z,90.30
2022-10-26T18:59:32.350Z,90.50
2022-10-26T19:02:17.608Z,90.60
2022-10-26T19:05:03.444Z,90.70
2022-10-26T19:07:48.675Z,90.70
2022-10-26T19:10:37.337Z,90.70
2022-10-26T19:13:22.874Z,90.80
2022-10-26T19:16:33.565Z,90.90
2022-10-26T19:19:27.022Z,91.10
2022-10-26T19:22:12.132Z,91.10
2022-10-26T19:24:57.664Z,91.10
2022-10-26T19:27:55.379Z,91.10
2022-10-26T19:30:40.769Z,91.10
2022-10-26T19:33:27.323Z,91.20
2022-10-26T19:36:13.155Z,91.00
2022-10-26T19:38:59.096Z,90.70
2022-10-26T19:41:51.310Z,90.70
2022-10-26T19:44:36.493Z,91.10
2022-10-26T19:47:22.118Z,91.40
2022-10-26T19:50:08.221Z,91.50
2022-10-26T19:52:53.936Z,91.50
2022-10-26T19:55:43.688Z,91.70
2022-10-26T19:58:31.414Z,92.00
2022-10-26T20:01:19.539Z,91.90
2022-10-26T20:04:06.179Z,91.90
2022-10-26T20:06:51.533Z,91.90
2022-10-26T20:09:36.759Z,92.00
2022-10-26T20:12:22.191Z,92.10
2022-10-26T20:15:08.620Z,92.30
2022-10-26T20:18:00.535Z,92.30
2022-10-26T20:20:46.451Z,92.50
2022-10-26T20:23:31.923Z,92.60
2022-10-26T20:26:19.973Z,92.70
2022-10-26T20:29:05.756Z,92.80
2022-10-26T20:31:55.828Z,92.90
2022-10-26T20:34:49.935Z,92.80
2022-10-26T20:37:35.817Z,92.90
2022-10-26T20:40:21.655Z,93.00
2022-10-26T20:43:09.870Z,93.00
2022-10-26T20:45:56.266Z,93.00
2022-10-26T20:48:42.075Z,93.00
2022-10-26T20:51:44.532Z,93.00
2022-10-26T20:54:48.426Z,92.90
2022-10-26T20:57:36.995Z,93.00
2022-10-26T21:00:30.003Z,93.20
2022-10-26T21:03:15.350Z,93.10
2022-10-26T21:06:00.677Z,93.10
2022-10-26T21:08:49.800Z,93.00
2022-10-26T21:11:35.475Z,93.00
2022-10-26T21:14:24.738Z,93.10
2022-10-26T21:17:15.434Z,93.40
2022-10-26T21:20:00.924Z,93.40
2022-10-26T21:22:46.358Z,93.50
2022-10-26T21:25:33.180Z,93.60
2022-10-26T21:28:21.471Z,93.60
2022-10-26T21:31:09.083Z,93.60
2022-10-26T21:33:55.168Z,93.50
2022-10-26T21:36:40.712Z,93.30
2022-10-26T21:39:26.174Z,93.30
2022-10-26T21:42:11.592Z,93.30
2022-10-26T21:44:57.429Z,93.60
2022-10-26T21:47:42.855Z,93.80
2022-10-26T21:50:28.128Z,93.80
2022-10-26T21:53:13.810Z,93.80
2022-10-26T21:56:09.753Z,93.80
2022-10-26T21:58:55.195Z,93.90
2022-10-26T22:01:43.276Z,93.80
2022-10-26T22:04:29.004Z,93.90
2022-10-26T22:07:14.452Z,93.90
2022-10-26T22:10:10.225Z,93.70
2022-10-26T22:12:58.239Z,93.60
2022-10-26T22:15:44.031Z,93.60
2022-10-26T22:18:29.438Z,93.40
2022-10-26T22:21:16.595Z,93.30
2022-10-26T22:24:02.178Z,93.20
2022-10-26T22:26:47.468Z,93.10
2022-10-26T22:29:33.255Z,93.10
2022-10-26T22:32:18.625Z,93.10
2022-10-26T22:35:17.496Z,93.00
2022-10-26T22:38:09.195Z,93.10
2022-10-26T22:40:55.689Z,93.10
2022-10-26T22:43:41.296Z,93.20
2022-10-26T22:46:28.664Z,93.20
2022-10-26T22:49:14.290Z,93.30
2022-10-26T22:51:59.628Z,93.30
2022-10-26T22:54:44.808Z,93.30
2022-10-26T22:57:30.610Z,93.30
2022-10-26T23:00:16.426Z,93.20
2022-10-26T23:03:01.977Z,93.10
2022-10-26T23:05:48.436Z,93.10
2022-10-26T23:08:34.339Z,93.10
2022-10-26T23:11:22.130Z,93.00
2022-10-26T23:14:11.079Z,93.00
2022-10-26T23:16:56.320Z,93.00
2022-10-26T23:19:41.937Z,93.10
2022-10-26T23:22:27.294Z,93.10
2022-10-26T23:25:13.047Z,93.10
2022-10-26T23:27:58.409Z,93.30
2022-10-26T23:30:47.212Z,93.30
2022-10-26T23:33:33.287Z,93.20
2022-10-26T23:36:19.730Z,93.00
2022-10-26T23:39:04.965Z,92.80
2022-10-26T23:41:50.541Z,92.80
2022-10-26T23:44:35.920Z,92.70
2022-10-26T23:47:21.468Z,92.80
2022-10-26T23:50:07.468Z,92.70
2022-10-26T23:52:52.992Z,92.70
2022-10-26T23:55:39.336Z,92.60
2022-10-26T23:58:24.591Z,92.70
